sensor_id;sensor_type;location;lat;lon;timestamp;temperature;humidity
69546;SHT31;56766;52.260;20.746;2023-10-13T00:00:40;6.69;86.60
69546;SHT31;56766;52.260;20.746;2023-10-13T00:03:27;6.70;86.59
69546;SHT31;56766;52.260;20.746;2023-10-13T00:05:58;6.69;86.47
69546;SHT31;56766;52.260;20.746;2023-10-13T00:08:29;6.65;86.45
69546;SHT31;56766;52.260;20.746;2023-10-13T00:10:56;6.60;86.51
69546;SHT31;56766;52.260;20.746;2023-10-13T00:13:27;6.56;86.52
69546;SHT31;56766;52.260;20.746;2023-10-13T00:15:55;6.51;86.58
69546;SHT31;56766;52.260;20.746;2023-10-13T00:18:30;6.50;86.55
69546;SHT31;56766;52.260;20.746;2023-10-13T00:21:02;6.46;86.49
69546;SHT31;56766;52.260;20.746;2023-10-13T00:23:44;6.44;86.48
69546;SHT31;56766;52.260;20.746;2023-10-13T00:26:20;6.41;86.40
69546;SHT31;56766;52.260;20.746;2023-10-13T00:28:51;6.37;86.39
69546;SHT31;56766;52.260;20.746;2023-10-13T00:31:25;6.28;86.32
69546;SHT31;56766;52.260;20.746;2023-10-13T00:33:58;6.20;86.41
69546;SHT31;56766;52.260;20.746;2023-10-13T00:36:35;6.16;86.39
69546;SHT31;56766;52.260;20.746;2023-10-13T00:39:02;6.14;86.47
69546;SHT31;56766;52.260;20.746;2023-10-13T00:41:33;6.13;86.42
69546;SHT31;56766;52.260;20.746;2023-10-13T00:44:18;6.13;86.43
69546;SHT31;56766;52.260;20.746;2023-10-13T00:46:54;6.10;86.42
69546;SHT31;56766;52.260;20.746;2023-10-13T00:49:23;6.10;86.45
69546;SHT31;56766;52.260;20.746;2023-10-13T00:51:50;6.07;86.48
69546;SHT31;56766;52.260;20.746;2023-10-13T00:54:18;6.03;86.47
69546;SHT31;56766;52.260;20.746;2023-10-13T00:56:46;6.02;86.54
69546;SHT31;56766;52.260;20.746;2023-10-13T00:59:16;5.98;86.53
69546;SHT31;56766;52.260;20.746;2023-10-13T01:01:43;5.92;86.68
69546;SHT31;56766;52.260;20.746;2023-10-13T01:04:11;5.86;86.70
69546;SHT31;56766;52.260;20.746;2023-10-13T01:06:41;5.84;86.72
69546;SHT31;56766;52.260;20.746;2023-10-13T01:09:10;5.82;86.71
69546;SHT31;56766;52.260;20.746;2023-10-13T01:11:45;5.78;86.69
69546;SHT31;56766;52.260;20.746;2023-10-13T01:14:14;5.74;86.67
69546;SHT31;56766;52.260;20.746;2023-10-13T01:16:45;5.72;86.73
69546;SHT31;56766;52.260;20.746;2023-10-13T01:19:13;5.72;86.75
69546;SHT31;56766;52.260;20.746;2023-10-13T01:21:44;5.70;86.65
69546;SHT31;56766;52.260;20.746;2023-10-13T01:24:11;5.67;86.66
69546;SHT31;56766;52.260;20.746;2023-10-13T01:26:39;5.63;86.69
69546;SHT31;56766;52.260;20.746;2023-10-13T01:29:08;5.60;86.59
69546;SHT31;56766;52.260;20.746;2023-10-13T01:31:42;5.57;86.66
69546;SHT31;56766;52.260;20.746;2023-10-13T01:36:46;5.54;86.57
69546;SHT31;56766;52.260;20.746;2023-10-13T01:39:12;5.49;86.62
69546;SHT31;56766;52.260;20.746;2023-10-13T01:41:43;5.47;86.61
69546;SHT31;56766;52.260;20.746;2023-10-13T01:44:10;5.46;86.62
69546;SHT31;56766;52.260;20.746;2023-10-13T01:46:38;5.43;86.51
69546;SHT31;56766;52.260;20.746;2023-10-13T01:49:05;5.42;86.53
69546;SHT31;56766;52.260;20.746;2023-10-13T01:51:34;5.40;86.51
69546;SHT31;56766;52.260;20.746;2023-10-13T01:54:01;5.40;86.62
69546;SHT31;56766;52.260;20.746;2023-10-13T01:56:29;5.41;86.60
69546;SHT31;56766;52.260;20.746;2023-10-13T01:58:56;5.39;86.70
69546;SHT31;56766;52.260;20.746;2023-10-13T02:01:23;5.38;86.80
69546;SHT31;56766;52.260;20.746;2023-10-13T02:03:55;5.38;86.80
69546;SHT31;56766;52.260;20.746;2023-10-13T02:06:34;5.37;86.80
69546;SHT31;56766;52.260;20.746;2023-10-13T02:09:07;5.38;86.80
69546;SHT31;56766;52.260;20.746;2023-10-13T02:11:44;5.39;86.78
69546;SHT31;56766;52.260;20.746;2023-10-13T02:14:14;5.43;86.82
69546;SHT31;56766;52.260;20.746;2023-10-13T02:16:43;5.47;86.82
69546;SHT31;56766;52.260;20.746;2023-10-13T02:19:13;5.46;86.90
69546;SHT31;56766;52.260;20.746;2023-10-13T02:21:42;5.43;87.04
69546;SHT31;56766;52.260;20.746;2023-10-13T02:24:11;5.43;87.10
69546;SHT31;56766;52.260;20.746;2023-10-13T02:26:45;5.42;87.09
69546;SHT31;56766;52.260;20.746;2023-10-13T02:29:12;5.42;87.15
69546;SHT31;56766;52.260;20.746;2023-10-13T02:31:41;5.44;87.13
69546;SHT31;56766;52.260;20.746;2023-10-13T02:34:09;5.42;87.10
69546;SHT31;56766;52.260;20.746;2023-10-13T02:36:40;5.41;87.07
69546;SHT31;56766;52.260;20.746;2023-10-13T02:39:17;5.41;87.01
69546;SHT31;56766;52.260;20.746;2023-10-13T02:41:52;5.38;86.93
69546;SHT31;56766;52.260;20.746;2023-10-13T02:44:22;5.35;86.98
69546;SHT31;56766;52.260;20.746;2023-10-13T02:46:57;5.34;87.00
69546;SHT31;56766;52.260;20.746;2023-10-13T02:49:26;5.32;87.10
69546;SHT31;56766;52.260;20.746;2023-10-13T02:51:53;5.32;87.11
69546;SHT31;56766;52.260;20.746;2023-10-13T02:54:25;5.32;87.11
69546;SHT31;56766;52.260;20.746;2023-10-13T02:56:58;5.32;87.09
69546;SHT31;56766;52.260;20.746;2023-10-13T02:59:30;5.31;87.11
69546;SHT31;56766;52.260;20.746;2023-10-13T03:02:06;5.33;87.20
69546;SHT31;56766;52.260;20.746;2023-10-13T03:04:57;5.37;87.16
69546;SHT31;56766;52.260;20.746;2023-10-13T03:07:36;5.38;87.13
69546;SHT31;56766;52.260;20.746;2023-10-13T03:10:04;5.40;87.26
69546;SHT31;56766;52.260;20.746;2023-10-13T03:12:39;5.45;87.30
69546;SHT31;56766;52.260;20.746;2023-10-13T03:15:07;5.50;87.30
69546;SHT31;56766;52.260;20.746;2023-10-13T03:17:44;5.52;87.30
69546;SHT31;56766;52.260;20.746;2023-10-13T03:20:16;5.53;87.22
69546;SHT31;56766;52.260;20.746;2023-10-13T03:22:57;5.54;87.30
69546;SHT31;56766;52.260;20.746;2023-10-13T03:25:26;5.57;87.35
69546;SHT31;56766;52.260;20.746;2023-10-13T03:27:56;5.55;87.30
69546;SHT31;56766;52.260;20.746;2023-10-13T03:30:23;5.56;87.28
69546;SHT31;56766;52.260;20.746;2023-10-13T03:32:56;5.54;87.25
69546;SHT31;56766;52.260;20.746;2023-10-13T03:35:23;5.52;87.21
69546;SHT31;56766;52.260;20.746;2023-10-13T03:37:51;5.51;87.20
69546;SHT31;56766;52.260;20.746;2023-10-13T03:40:19;5.52;87.14
69546;SHT31;56766;52.260;20.746;2023-10-13T03:42:50;5.52;87.09
69546;SHT31;56766;52.260;20.746;2023-10-13T03:45:32;5.52;87.00
69546;SHT31;56766;52.260;20.746;2023-10-13T03:48:30;5.49;86.93
69546;SHT31;56766;52.260;20.746;2023-10-13T03:51:02;5.45;86.92
69546;SHT31;56766;52.260;20.746;2023-10-13T03:53:42;5.37;86.80
69546;SHT31;56766;52.260;20.746;2023-10-13T03:56:24;5.28;86.89
69546;SHT31;56766;52.260;20.746;2023-10-13T03:58:54;5.26;86.90
69546;SHT31;56766;52.260;20.746;2023-10-13T04:01:24;5.25;87.00
69546;SHT31;56766;52.260;20.746;2023-10-13T04:03:59;5.28;87.02
69546;SHT31;56766;52.260;20.746;2023-10-13T04:06:38;5.32;87.15
69546;SHT31;56766;52.260;20.746;2023-10-13T04:09:20;5.32;87.23
69546;SHT31;56766;52.260;20.746;2023-10-13T04:11:57;5.32;87.46
69546;SHT31;56766;52.260;20.746;2023-10-13T04:14:36;5.36;87.60
69546;SHT31;56766;52.260;20.746;2023-10-13T04:17:11;5.39;87.56
69546;SHT31;56766;52.260;20.746;2023-10-13T04:19:41;5.41;87.46
69546;SHT31;56766;52.260;20.746;2023-10-13T04:22:27;5.44;87.39
69546;SHT31;56766;52.260;20.746;2023-10-13T04:25:50;5.47;87.39
69546;SHT31;56766;52.260;20.746;2023-10-13T04:28:16;5.48;87.42
69546;SHT31;56766;52.260;20.746;2023-10-13T04:30:51;5.51;87.42
69546;SHT31;56766;52.260;20.746;2023-10-13T04:33:29;5.53;87.72
69546;SHT31;56766;52.260;20.746;2023-10-13T04:36:09;5.59;87.87
69546;SHT31;56766;52.260;20.746;2023-10-13T04:38:56;5.61;87.78
69546;SHT31;56766;52.260;20.746;2023-10-13T04:41:33;5.63;87.74
69546;SHT31;56766;52.260;20.746;2023-10-13T04:44:25;5.64;87.78
69546;SHT31;56766;52.260;20.746;2023-10-13T04:47:07;5.62;87.87
69546;SHT31;56766;52.260;20.746;2023-10-13T04:49:44;5.57;87.90
69546;SHT31;56766;52.260;20.746;2023-10-13T04:52:13;5.52;87.90
69546;SHT31;56766;52.260;20.746;2023-10-13T04:54:59;5.45;87.81
69546;SHT31;56766;52.260;20.746;2023-10-13T04:57:36;5.41;87.85
69546;SHT31;56766;52.260;20.746;2023-10-13T05:00:13;5.42;87.88
69546;SHT31;56766;52.260;20.746;2023-10-13T05:02:45;5.38;87.80
69546;SHT31;56766;52.260;20.746;2023-10-13T05:05:14;5.31;87.73
69546;SHT31;56766;52.260;20.746;2023-10-13T05:07:45;5.23;87.70
69546;SHT31;56766;52.260;20.746;2023-10-13T05:10:32;5.20;87.81
69546;SHT31;56766;52.260;20.746;2023-10-13T05:13:18;5.19;87.89
69546;SHT31;56766;52.260;20.746;2023-10-13T05:16:04;5.17;87.92
69546;SHT31;56766;52.260;20.746;2023-10-13T05:18:49;5.18;88.09
69546;SHT31;56766;52.260;20.746;2023-10-13T05:21:35;5.19;88.15
69546;SHT31;56766;52.260;20.746;2023-10-13T05:24:21;5.25;88.19
69546;SHT31;56766;52.260;20.746;2023-10-13T05:27:06;5.33;88.24
69546;SHT31;56766;52.260;20.746;2023-10-13T05:29:51;5.39;88.30
69546;SHT31;56766;52.260;20.746;2023-10-13T05:32:38;5.44;88.30
69546;SHT31;56766;52.260;20.746;2023-10-13T05:35:25;5.51;88.63
69546;SHT31;56766;52.260;20.746;2023-10-13T05:38:10;5.49;88.47
69546;SHT31;56766;52.260;20.746;2023-10-13T05:40:58;5.50;88.49
69546;SHT31;56766;52.260;20.746;2023-10-13T05:43:48;5.51;88.40
69546;SHT31;56766;52.260;20.746;2023-10-13T05:46:34;5.56;88.48
69546;SHT31;56766;52.260;20.746;2023-10-13T05:49:05;5.63;88.48
69546;SHT31;56766;52.260;20.746;2023-10-13T05:52:16;5.71;88.32
69546;SHT31;56766;52.260;20.746;2023-10-13T05:55:06;5.79;88.27
69546;SHT31;56766;52.260;20.746;2023-10-13T05:57:51;5.86;88.32
69546;SHT31;56766;52.260;20.746;2023-10-13T06:00:41;5.96;88.30
69546;SHT31;56766;52.260;20.746;2023-10-13T06:03:26;6.06;88.25
69546;SHT31;56766;52.260;20.746;2023-10-13T06:06:11;6.14;88.23
69546;SHT31;56766;52.260;20.746;2023-10-13T06:08:57;6.21;88.25
69546;SHT31;56766;52.260;20.746;2023-10-13T06:11:42;6.29;88.20
69546;SHT31;56766;52.260;20.746;2023-10-13T06:14:28;6.41;88.20
69546;SHT31;56766;52.260;20.746;2023-10-13T06:17:13;6.51;88.20
69546;SHT31;56766;52.260;20.746;2023-10-13T06:19:58;6.66;88.20
69546;SHT31;56766;52.260;20.746;2023-10-13T06:22:47;6.81;88.20
69546;SHT31;56766;52.260;20.746;2023-10-13T06:25:33;7.01;88.20
69546;SHT31;56766;52.260;20.746;2023-10-13T06:28:19;7.20;88.29
69546;SHT31;56766;52.260;20.746;2023-10-13T06:31:05;7.40;88.52
69546;SHT31;56766;52.260;20.746;2023-10-13T06:33:33;7.58;88.74
69546;SHT31;56766;52.260;20.746;2023-10-13T06:36:02;7.75;88.91
69546;SHT31;56766;52.260;20.746;2023-10-13T06:38:30;7.94;88.99
69546;SHT31;56766;52.260;20.746;2023-10-13T06:41:04;8.16;89.16
69546;SHT31;56766;52.260;20.746;2023-10-13T06:43:36;8.50;89.33
69546;SHT31;56766;52.260;20.746;2023-10-13T06:46:07;8.87;89.45
69546;SHT31;56766;52.260;20.746;2023-10-13T06:48:34;9.26;89.65
69546;SHT31;56766;52.260;20.746;2023-10-13T06:51:02;9.62;89.93
69546;SHT31;56766;52.260;20.746;2023-10-13T06:53:45;9.92;90.00
69546;SHT31;56766;52.260;20.746;2023-10-13T06:56:14;10.14;90.00
69546;SHT31;56766;52.260;20.746;2023-10-13T06:58:56;10.34;90.00
69546;SHT31;56766;52.260;20.746;2023-10-13T07:01:27;10.49;89.89
69546;SHT31;56766;52.260;20.746;2023-10-13T07:03:54;10.59;89.76
69546;SHT31;56766;52.260;20.746;2023-10-13T07:06:27;10.67;89.63
69546;SHT31;56766;52.260;20.746;2023-10-13T07:08:54;10.71;89.46
69546;SHT31;56766;52.260;20.746;2023-10-13T07:11:25;10.77;89.35
69546;SHT31;56766;52.260;20.746;2023-10-13T07:14:09;10.90;89.36
69546;SHT31;56766;52.260;20.746;2023-10-13T07:16:43;11.09;89.38
69546;SHT31;56766;52.260;20.746;2023-10-13T07:19:28;11.31;89.34
69546;SHT31;56766;52.260;20.746;2023-10-13T07:21:59;11.45;89.20
69546;SHT31;56766;52.260;20.746;2023-10-13T07:24:30;11.62;89.09
69546;SHT31;56766;52.260;20.746;2023-10-13T07:27:06;11.78;88.94
69546;SHT31;56766;52.260;20.746;2023-10-13T07:29:34;11.93;88.90
69546;SHT31;56766;52.260;20.746;2023-10-13T07:32:02;12.06;88.74
69546;SHT31;56766;52.260;20.746;2023-10-13T07:34:29;12.19;88.65
69546;SHT31;56766;52.260;20.746;2023-10-13T07:36:59;12.31;88.48
69546;SHT31;56766;52.260;20.746;2023-10-13T07:39:28;12.41;88.28
69546;SHT31;56766;52.260;20.746;2023-10-13T07:42:01;12.53;88.10
69546;SHT31;56766;52.260;20.746;2023-10-13T07:44:33;12.67;88.04
69546;SHT31;56766;52.260;20.746;2023-10-13T07:47:02;12.76;87.78
69546;SHT31;56766;52.260;20.746;2023-10-13T07:49:36;12.82;87.59
69546;SHT31;56766;52.260;20.746;2023-10-13T07:52:07;12.81;87.31
69546;SHT31;56766;52.260;20.746;2023-10-13T07:55:02;12.78;87.14
69546;SHT31;56766;52.260;20.746;2023-10-13T07:57:40;12.77;87.02
69546;SHT31;56766;52.260;20.746;2023-10-13T08:00:24;12.78;86.95
69546;SHT31;56766;52.260;20.746;2023-10-13T08:03:09;12.82;86.91
69546;SHT31;56766;52.260;20.746;2023-10-13T08:05:45;12.89;86.94
69546;SHT31;56766;52.260;20.746;2023-10-13T08:08:46;12.96;86.95
69546;SHT31;56766;52.260;20.746;2023-10-13T08:11:21;13.06;87.05
69546;SHT31;56766;52.260;20.746;2023-10-13T08:14:02;13.18;87.09
69546;SHT31;56766;52.260;20.746;2023-10-13T08:16:48;13.30;86.85
69546;SHT31;56766;52.260;20.746;2023-10-13T08:19:24;13.33;86.62
69546;SHT31;56766;52.260;20.746;2023-10-13T08:21:57;13.37;86.39
69546;SHT31;56766;52.260;20.746;2023-10-13T08:24:26;13.41;86.27
69546;SHT31;56766;52.260;20.746;2023-10-13T08:27:21;13.50;85.96
69546;SHT31;56766;52.260;20.746;2023-10-13T08:30:02;13.56;85.79
69546;SHT31;56766;52.260;20.746;2023-10-13T08:32:49;13.63;85.83
69546;SHT31;56766;52.260;20.746;2023-10-13T08:35:23;13.82;85.87
69546;SHT31;56766;52.260;20.746;2023-10-13T08:37:56;14.00;85.57
69546;SHT31;56766;52.260;20.746;2023-10-13T08:40:29;14.11;84.99
69546;SHT31;56766;52.260;20.746;2023-10-13T08:43:17;14.12;84.70
69546;SHT31;56766;52.260;20.746;2023-10-13T08:45:44;14.19;84.88
69546;SHT31;56766;52.260;20.746;2023-10-13T08:48:12;14.38;84.93
69546;SHT31;56766;52.260;20.746;2023-10-13T08:50:49;14.57;84.60
69546;SHT31;56766;52.260;20.746;2023-10-13T08:53:28;14.74;84.30
69546;SHT31;56766;52.260;20.746;2023-10-13T08:56:09;14.82;83.82
69546;SHT31;56766;52.260;20.746;2023-10-13T08:58:45;14.80;83.38
69546;SHT31;56766;52.260;20.746;2023-10-13T09:01:25;14.74;83.27
69546;SHT31;56766;52.260;20.746;2023-10-13T09:04:15;14.78;83.25
69546;SHT31;56766;52.260;20.746;2023-10-13T09:12:16;15.10;82.98
69546;SHT31;56766;52.260;20.746;2023-10-13T09:14:54;15.33;82.84
69546;SHT31;56766;52.260;20.746;2023-10-13T09:17:31;15.50;82.36
69546;SHT31;56766;52.260;20.746;2023-10-13T09:20:09;15.60;81.92
69546;SHT31;56766;52.260;20.746;2023-10-13T09:22:56;15.60;81.75
69546;SHT31;56766;52.260;20.746;2023-10-13T09:25:29;15.66;81.69
69546;SHT31;56766;52.260;20.746;2023-10-13T09:28:11;15.78;81.62
69546;SHT31;56766;52.260;20.746;2023-10-13T09:30:53;15.81;81.01
69546;SHT31;56766;52.260;20.746;2023-10-13T09:33:27;15.84;80.54
69546;SHT31;56766;52.260;20.746;2023-10-13T09:36:16;15.90;80.55
69546;SHT31;56766;52.260;20.746;2023-10-13T09:38:44;15.98;80.38
69546;SHT31;56766;52.260;20.746;2023-10-13T09:41:28;16.18;80.42
69546;SHT31;56766;52.260;20.746;2023-10-13T09:43:59;16.30;79.78
69546;SHT31;56766;52.260;20.746;2023-10-13T09:46:27;16.41;79.90
69546;SHT31;56766;52.260;20.746;2023-10-13T09:49:12;16.56;79.59
69546;SHT31;56766;52.260;20.746;2023-10-13T09:51:49;16.83;79.68
69546;SHT31;56766;52.260;20.746;2023-10-13T09:54:38;17.12;78.81
69546;SHT31;56766;52.260;20.746;2023-10-13T09:57:15;17.18;78.22
69546;SHT31;56766;52.260;20.746;2023-10-13T09:59:49;17.25;78.11
69546;SHT31;56766;52.260;20.746;2023-10-13T10:02:20;17.35;78.05
69546;SHT31;56766;52.260;20.746;2023-10-13T10:04:55;17.45;77.42
69546;SHT31;56766;52.260;20.746;2023-10-13T10:07:39;17.48;76.91
69546;SHT31;56766;52.260;20.746;2023-10-13T10:10:11;17.50;76.85
69546;SHT31;56766;52.260;20.746;2023-10-13T10:15:29;17.65;76.39
69546;SHT31;56766;52.260;20.746;2023-10-13T10:18:20;17.80;76.67
69546;SHT31;56766;52.260;20.746;2023-10-13T10:20:49;17.99;76.50
69546;SHT31;56766;52.260;20.746;2023-10-13T10:23:25;18.15;76.27
69546;SHT31;56766;52.260;20.746;2023-10-13T10:26:15;18.27;75.59
69546;SHT31;56766;52.260;20.746;2023-10-13T10:28:49;18.26;75.29
69546;SHT31;56766;52.260;20.746;2023-10-13T10:31:16;18.24;75.04
69546;SHT31;56766;52.260;20.746;2023-10-13T10:33:46;18.14;74.78
69546;SHT31;56766;52.260;20.746;2023-10-13T10:36:28;17.96;74.53
69546;SHT31;56766;52.260;20.746;2023-10-13T10:38:57;17.78;74.92
69546;SHT31;56766;52.260;20.746;2023-10-13T10:41:31;17.78;75.19
69546;SHT31;56766;52.260;20.746;2023-10-13T10:44:13;17.93;75.40
69546;SHT31;56766;52.260;20.746;2023-10-13T10:46:43;18.16;75.02
69546;SHT31;56766;52.260;20.746;2023-10-13T10:49:26;18.50;75.02
69546;SHT31;56766;52.260;20.746;2023-10-13T10:51:59;18.82;74.78
69546;SHT31;56766;52.260;20.746;2023-10-13T10:54:27;18.99;74.25
69546;SHT31;56766;52.260;20.746;2023-10-13T10:57:01;19.13;73.52
69546;SHT31;56766;52.260;20.746;2023-10-13T10:59:38;19.00;72.96
69546;SHT31;56766;52.260;20.746;2023-10-13T11:02:07;18.86;73.23
69546;SHT31;56766;52.260;20.746;2023-10-13T11:04:35;18.83;73.62
69546;SHT31;56766;52.260;20.746;2023-10-13T11:07:36;18.99;73.40
69546;SHT31;56766;52.260;20.746;2023-10-13T11:10:10;19.13;73.16
69546;SHT31;56766;52.260;20.746;2023-10-13T11:12:55;19.31;72.92
69546;SHT31;56766;52.260;20.746;2023-10-13T11:15:48;19.51;72.89
69546;SHT31;56766;52.260;20.746;2023-10-13T11:18:17;19.59;72.22
69546;SHT31;56766;52.260;20.746;2023-10-13T11:20:50;19.63;72.32
69546;SHT31;56766;52.260;20.746;2023-10-13T11:23:22;19.76;72.08
69546;SHT31;56766;52.260;20.746;2023-10-13T11:25:59;19.82;71.83
69546;SHT31;56766;52.260;20.746;2023-10-13T11:28:26;19.89;71.69
69546;SHT31;56766;52.260;20.746;2023-10-13T11:30:58;19.95;71.48
69546;SHT31;56766;52.260;20.746;2023-10-13T11:33:27;20.05;71.70
69546;SHT31;56766;52.260;20.746;2023-10-13T11:35:56;20.09;71.18
69546;SHT31;56766;52.260;20.746;2023-10-13T11:38:27;19.97;70.95
69546;SHT31;56766;52.260;20.746;2023-10-13T11:41:01;19.85;71.04
69546;SHT31;56766;52.260;20.746;2023-10-13T11:46:12;20.20;70.68
69546;SHT31;56766;52.260;20.746;2023-10-13T11:48:43;20.32;70.38
69546;SHT31;56766;52.260;20.746;2023-10-13T11:51:14;20.42;70.46
69546;SHT31;56766;52.260;20.746;2023-10-13T11:53:50;20.62;70.60
69546;SHT31;56766;52.260;20.746;2023-10-13T11:56:22;20.86;70.47
69546;SHT31;56766;52.260;20.746;2023-10-13T11:58:49;21.03;69.79
69546;SHT31;56766;52.260;20.746;2023-10-13T12:01:16;21.11;69.49
69546;SHT31;56766;52.260;20.746;2023-10-13T12:03:48;21.11;69.33
69546;SHT31;56766;52.260;20.746;2023-10-13T12:06:35;21.08;69.02
69546;SHT31;56766;52.260;20.746;2023-10-13T12:09:07;21.04;69.20
69546;SHT31;56766;52.260;20.746;2023-10-13T12:11:45;21.11;69.68
69546;SHT31;56766;52.260;20.746;2023-10-13T12:14:15;21.16;69.57
69546;SHT31;56766;52.260;20.746;2023-10-13T12:16:48;21.16;69.32
69546;SHT31;56766;52.260;20.746;2023-10-13T12:19:19;21.10;69.02
69546;SHT31;56766;52.260;20.746;2023-10-13T12:21:51;21.02;68.88
69546;SHT31;56766;52.260;20.746;2023-10-13T12:24:27;20.95;69.06
69546;SHT31;56766;52.260;20.746;2023-10-13T12:27:19;20.91;69.17
69546;SHT31;56766;52.260;20.746;2023-10-13T12:29:47;20.95;69.22
69546;SHT31;56766;52.260;20.746;2023-10-13T12:32:14;21.02;69.08
69546;SHT31;56766;52.260;20.746;2023-10-13T12:34:48;21.04;68.77
69546;SHT31;56766;52.260;20.746;2023-10-13T12:37:28;21.03;68.63
69546;SHT31;56766;52.260;20.746;2023-10-13T12:40:03;20.98;68.49
69546;SHT31;56766;52.260;20.746;2023-10-13T12:42:49;20.87;68.56
69546;SHT31;56766;52.260;20.746;2023-10-13T12:45:43;20.79;69.06
69546;SHT31;56766;52.260;20.746;2023-10-13T12:48:32;20.82;69.45
69546;SHT31;56766;52.260;20.746;2023-10-13T12:51:19;20.71;69.21
69546;SHT31;56766;52.260;20.746;2023-10-13T12:53:48;20.56;69.42
69546;SHT31;56766;52.260;20.746;2023-10-13T12:56:16;20.42;69.76
69546;SHT31;56766;52.260;20.746;2023-10-13T12:58:44;20.33;70.13
69546;SHT31;56766;52.260;20.746;2023-10-13T13:01:18;20.36;70.59
69546;SHT31;56766;52.260;20.746;2023-10-13T13:03:50;20.43;70.72
69546;SHT31;56766;52.260;20.746;2023-10-13T13:06:24;20.54;70.67
69546;SHT31;56766;52.260;20.746;2023-10-13T13:08:59;20.66;70.54
69546;SHT31;56766;52.260;20.746;2023-10-13T13:11:26;20.73;70.48
69546;SHT31;56766;52.260;20.746;2023-10-13T13:13:56;20.73;70.40
69546;SHT31;56766;52.260;20.746;2023-10-13T13:16:23;20.67;70.34
69546;SHT31;56766;52.260;20.746;2023-10-13T13:18:56;20.62;70.36
69546;SHT31;56766;52.260;20.746;2023-10-13T13:21:23;20.58;70.43
69546;SHT31;56766;52.260;20.746;2023-10-13T13:23:51;20.51;70.52
69546;SHT31;56766;52.260;20.746;2023-10-13T13:26:22;20.48;70.62
69546;SHT31;56766;52.260;20.746;2023-10-13T13:28:49;20.45;70.77
69546;SHT31;56766;52.260;20.746;2023-10-13T13:31:18;20.49;70.91
69546;SHT31;56766;52.260;20.746;2023-10-13T13:33:56;20.55;70.83
69546;SHT31;56766;52.260;20.746;2023-10-13T13:36:25;20.66;70.91
69546;SHT31;56766;52.260;20.746;2023-10-13T13:38:52;20.76;70.78
69546;SHT31;56766;52.260;20.746;2023-10-13T13:41:24;20.80;70.66
69546;SHT31;56766;52.260;20.746;2023-10-13T13:43:51;20.81;70.54
69546;SHT31;56766;52.260;20.746;2023-10-13T13:46:27;20.80;70.56
69546;SHT31;56766;52.260;20.746;2023-10-13T13:48:59;20.78;70.70
69546;SHT31;56766;52.260;20.746;2023-10-13T13:51:28;20.74;70.72
69546;SHT31;56766;52.260;20.746;2023-10-13T13:53:56;20.70;70.81
69546;SHT31;56766;52.260;20.746;2023-10-13T13:56:23;20.67;70.91
69546;SHT31;56766;52.260;20.746;2023-10-13T13:58:55;20.64;71.01
69546;SHT31;56766;52.260;20.746;2023-10-13T14:01:24;20.61;71.10
69546;SHT31;56766;52.260;20.746;2023-10-13T14:03:53;20.56;71.19
69546;SHT31;56766;52.260;20.746;2023-10-13T14:06:24;20.49;71.19
69546;SHT31;56766;52.260;20.746;2023-10-13T14:08:56;20.42;71.36
69546;SHT31;56766;52.260;20.746;2023-10-13T14:12:12;20.34;71.57
69546;SHT31;56766;52.260;20.746;2023-10-13T14:14:59;20.28;71.71
69546;SHT31;56766;52.260;20.746;2023-10-13T14:17:27;20.26;71.84
69546;SHT31;56766;52.260;20.746;2023-10-13T14:20:02;20.22;71.96
69546;SHT31;56766;52.260;20.746;2023-10-13T14:22:41;20.21;72.15
69546;SHT31;56766;52.260;20.746;2023-10-13T14:25:08;20.19;72.22
69546;SHT31;56766;52.260;20.746;2023-10-13T14:27:43;20.16;72.29
69546;SHT31;56766;52.260;20.746;2023-10-13T14:30:11;20.13;72.39
69546;SHT31;56766;52.260;20.746;2023-10-13T14:32:45;20.10;72.52
69546;SHT31;56766;52.260;20.746;2023-10-13T14:35:12;20.07;72.61
69546;SHT31;56766;52.260;20.746;2023-10-13T14:37:42;20.05;72.71
69546;SHT31;56766;52.260;20.746;2023-10-13T14:40:09;20.04;72.79
69546;SHT31;56766;52.260;20.746;2023-10-13T14:42:41;20.03;72.88
69546;SHT31;56766;52.260;20.746;2023-10-13T14:45:08;20.00;72.96
69546;SHT31;56766;52.260;20.746;2023-10-13T14:47:43;19.97;73.01
69546;SHT31;56766;52.260;20.746;2023-10-13T14:50:13;19.95;73.16
69546;SHT31;56766;52.260;20.746;2023-10-13T14:52:47;19.92;73.36
69546;SHT31;56766;52.260;20.746;2023-10-13T14:55:15;19.91;73.55
69546;SHT31;56766;52.260;20.746;2023-10-13T14:57:46;19.85;73.65
69546;SHT31;56766;52.260;20.746;2023-10-13T15:00:14;19.78;73.78
69546;SHT31;56766;52.260;20.746;2023-10-13T15:02:41;19.67;73.92
69546;SHT31;56766;52.260;20.746;2023-10-13T15:05:10;19.56;74.06
69546;SHT31;56766;52.260;20.746;2023-10-13T15:07:44;19.45;74.20
69546;SHT31;56766;52.260;20.746;2023-10-13T15:10:15;19.34;74.44
69546;SHT31;56766;52.260;20.746;2023-10-13T15:12:43;19.25;74.78
69546;SHT31;56766;52.260;20.746;2023-10-13T15:15:15;19.13;75.01
69546;SHT31;56766;52.260;20.746;2023-10-13T15:17:46;19.02;75.27
69546;SHT31;56766;52.260;20.746;2023-10-13T15:20:14;18.89;75.58
69546;SHT31;56766;52.260;20.746;2023-10-13T15:22:47;18.77;75.86
69546;SHT31;56766;52.260;20.746;2023-10-13T15:25:20;18.67;76.00
69546;SHT31;56766;52.260;20.746;2023-10-13T15:28:05;18.59;76.16
69546;SHT31;56766;52.260;20.746;2023-10-13T15:30:36;18.50;76.25
69546;SHT31;56766;52.260;20.746;2023-10-13T15:33:19;18.43;76.41
69546;SHT31;56766;52.260;20.746;2023-10-13T15:35:47;18.36;76.50
69546;SHT31;56766;52.260;20.746;2023-10-13T15:38:15;18.31;76.56
69546;SHT31;56766;52.260;20.746;2023-10-13T15:40:43;18.24;76.74
69546;SHT31;56766;52.260;20.746;2023-10-13T15:43:11;18.18;76.96
69546;SHT31;56766;52.260;20.746;2023-10-13T15:45:39;18.12;77.13
69546;SHT31;56766;52.260;20.746;2023-10-13T15:48:09;18.05;77.32
69546;SHT31;56766;52.260;20.746;2023-10-13T15:50:41;17.97;77.50
69546;SHT31;56766;52.260;20.746;2023-10-13T15:53:09;17.92;77.56
69546;SHT31;56766;52.260;20.746;2023-10-13T15:55:39;17.86;77.66
69546;SHT31;56766;52.260;20.746;2023-10-13T15:58:06;17.83;77.79
69546;SHT31;56766;52.260;20.746;2023-10-13T16:00:35;17.78;77.99
69546;SHT31;56766;52.260;20.746;2023-10-13T16:03:03;17.73;78.11
69546;SHT31;56766;52.260;20.746;2023-10-13T16:05:38;17.69;78.27
69546;SHT31;56766;52.260;20.746;2023-10-13T16:08:09;17.66;78.41
69546;SHT31;56766;52.260;20.746;2023-10-13T16:10:40;17.62;78.55
69546;SHT31;56766;52.260;20.746;2023-10-13T16:13:08;17.59;78.65
69546;SHT31;56766;52.260;20.746;2023-10-13T16:15:46;17.56;78.71
69546;SHT31;56766;52.260;20.746;2023-10-13T16:18:13;17.54;78.73
69546;SHT31;56766;52.260;20.746;2023-10-13T16:20:40;17.50;78.82
69546;SHT31;56766;52.260;20.746;2023-10-13T16:23:07;17.46;78.87